Eastover, SC (29044)

6:11 PM EST on February 09, 2016 (GMT -0500)
Horrell Hill SC | | Change Station
CLOSE
Current Station
Personal Weather Station
Location: Hopkins, SC
Elevation: 240 ft
Nearby Weather Stations
Active Advisory: Lake Wind Advisory

Elev 240 ft 33.94 °N, 80.83 °W | Updated 1 minute ago

Overcast
Overcast
37.5 °F
Feels Like 34 °F
N
5.0
Wind Variable Wind from WSW
Gusts 14.0 mph

Today
High -- | Low -- °F
--% Chance of Precip.
Yesterday
High -- | Low -- °F
Precip. -- in
Pressure 29.87 in
Visibility 10.0 miles
Clouds Few 4200 ft
Overcast 4900 ft
Windchill 34 °F
Dew Point 24 °F
Humidity 58%
Rainfall 0.00 in
Snow Depth Not available.
7:13 AM 6:00 PM
New Moon, 2% visible
METAR KMMT 092258Z 26009KT 10SM FEW042 OVC049 03/M05 A2985 RMK AO2A SLP113 P0000 T00341046 $
Pressure 29.87 in
Visibility 10.0 miles
Clouds Few 4200 ft
Overcast 4900 ft
Windchill 34 °F
Dew Point 24 °F
Humidity 58%
Rainfall 0.00 in
Snow Depth Not available.
7:13 AM 6:00 PM
New Moon, 2% visible
METAR KMMT 092258Z 26009KT 10SM FEW042 OVC049 03/M05 A2985 RMK AO2A SLP113 P0000 T00341046 $

10-Day Weather Forecast

Almanac

Astronomy

Feb. 09, 2016 Rise Set
Actual Time
Civil Twilight
Nautical Twilight
Astronomical Twilight
Moon
Length of Visible Light
Length of Day
Tomorrow will be .
, % of the Moon is Illuminated

Today's Extremes

State Highs State Lows

Community

WunderPhotos

Upload Photos

1,891,728 photos uploaded!

WunderBlog® & News

Nearby

Air Quality

  Air Quality AQ Index Pollutant
Not available.

Snow Depth

Station Depth Elevation

Earthquake Activity

City Distance Mag. Time & Date
Minimum magnitude displayed is 2.5.

Coastal Water Temperatures

Place Temperature

Stations

Nearby Weather Stations

Station Location Temp. Windchill Dew Point Humidity Wind Precip. Elev Updated Type
                   

Watches & Warnings

Lake Wind Advisory
Issued: 2:32 PM EST Feb. 9, 2016 – National Weather Service

... Lake Wind Advisory remains in effect until 11 PM EST
Wednesday...

* timing... today through Wednesday evening.

* Winds... west 20 to 30 knots.

* Impacts... strong winds and rough chop will create hazardous
conditions for small craft and personal watercraft.

Precautionary/preparedness actions...

A lake Wind Advisory indicates that winds will cause rough chop
on area lakes. Small boats will be especially prone to capsizing.